Time;durP1;ratioP1;P1;durP2;ratioP2;P2;SDS_P1;SDS_P2;PMS_P1;PMS_P2;Temp;Humidity;BMP_temperature;BMP_pressure;BME280_temperature;BME280_humidity;BME280_pressure;Samples;Min_cycle;Max_cycle;Signal;HPM_P1;HPM_P2
2022/09/09 00:00:27;;;;;;;;;;;16.70;99.90;;;;;;4973638;28;20390;-83
2022/09/09 00:03:04;;;;;;;;;;;16.70;99.90;;;;;;4975439;28;19905;-82
2022/09/09 00:05:33;;;;;;;;;;;16.70;99.90;;;;;;4966757;28;20290;-83
2022/09/09 00:08:01;;;;;;;;;;;16.70;99.90;;;;;;4965132;28;19938;-85
2022/09/09 00:10:42;;;;;;;;;;;16.70;99.90;;;;;;4966201;28;19913;-82
2022/09/09 00:13:43;;;;;;;;;;;16.80;99.90;;;;;;4971980;28;19961;-83
2022/09/09 00:16:23;;;;;;;;;;;16.90;99.90;;;;;;4940552;29;20407;-84
2022/09/09 00:19:01;;;;;;;;;;;16.90;99.90;;;;;;4970579;28;19921;-82
2022/09/09 00:21:35;;;;;;;;;;;16.90;99.90;;;;;;4979627;28;20389;-82
2022/09/09 00:24:01;;;;;;;;;;;17.00;99.90;;;;;;4949100;28;20329;-85
2022/09/09 00:26:40;;;;;;;;;;;17.00;99.90;;;;;;4983278;28;20374;-84
2022/09/09 00:29:11;;;;;;;;;;;17.10;99.90;;;;;;4965327;28;19913;-82
2022/09/09 00:31:37;;;;;;;;;;;17.10;99.90;;;;;;4965104;28;19917;-83
2022/09/09 00:34:09;;;;;;;;;;;17.00;99.90;;;;;;4965168;28;19910;-84
2022/09/09 00:36:35;;;;;;;;;;;17.50;99.90;;;;;;4964789;28;20000;-83
2022/09/09 00:39:01;;;;;;;;;;;17.10;99.90;;;;;;4964391;28;19996;-83
2022/09/09 00:41:37;;;;;;;;;;;17.10;99.90;;;;;;4982434;28;19920;-84
2022/09/09 00:44:13;;;;;;;;;;;17.10;99.90;;;;;;4980520;28;19917;-83
2022/09/09 00:46:50;;;;;;;;;;;17.10;99.90;;;;;;4980604;28;19916;-82
2022/09/09 00:49:18;;;;;;;;;;;17.10;99.90;;;;;;4963785;28;19910;-82
2022/09/09 00:51:47;;;;;;;;;;;17.00;99.90;;;;;;4967173;28;20363;-81
2022/09/09 00:54:16;;;;;;;;;;;17.10;99.90;;;;;;4980795;28;19920;-87
2022/09/09 00:56:47;;;;;;;;;;;17.00;99.90;;;;;;4979686;28;19906;-82
2022/09/09 00:59:36;;;;;;;;;;;18.80;99.90;;;;;;4969688;28;19913;-81
2022/09/09 01:02:09;;;;;;;;;;;16.90;99.90;;;;;;4972840;28;19910;-82
2022/09/09 01:04:36;;;;;;;;;;;16.80;99.90;;;;;;4961759;28;19910;-81
2022/09/09 01:07:14;;;;;;;;;;;16.80;99.90;;;;;;4962018;28;19980;-81
2022/09/09 01:09:56;;;;;;;;;;;16.70;99.90;;;;;;4980117;28;19938;-81
2022/09/09 01:12:27;;;;;;;;;;;16.70;99.90;;;;;;4963392;28;20331;-81
2022/09/09 01:15:13;;;;;;;;;;;16.70;99.90;;;;;;4961994;28;20512;-81
2022/09/09 01:17:44;;;;;;;;;;;16.60;99.90;;;;;;4979647;28;19917;-80
2022/09/09 01:20:13;;;;;;;;;;;16.60;99.90;;;;;;4978240;28;19906;-81
2022/09/09 01:22:38;;;;;;;;;;;16.60;99.90;;;;;;4962268;28;20214;-80
2022/09/09 01:25:25;;;;;;;;;;;16.60;99.90;;;;;;4975779;28;20357;-83
2022/09/09 01:27:53;;;;;;;;;;;16.50;99.90;;;;;;4974560;28;19957;-82
2022/09/09 01:30:19;;;;;;;;;;;17.10;99.90;;;;;;4958879;28;20001;-83
2022/09/09 01:32:46;;;;;;;;;;;16.50;99.90;;;;;;4967392;28;19941;-83
2022/09/09 01:35:26;;;;;;;;;;;16.50;99.90;;;;;;4962774;28;20274;-79
2022/09/09 01:37:52;;;;;;;;;;;16.50;99.90;;;;;;4973670;28;19914;-84
2022/09/09 01:40:17;;;;;;;;;;;16.60;99.90;;;;;;4950802;28;20339;-83
2022/09/09 01:42:43;;;;;;;;;;;16.50;99.90;;;;;;4959720;28;20367;-82
2022/09/09 01:45:09;;;;;;;;;;;16.60;99.90;;;;;;4964400;28;19910;-81
2022/09/09 01:47:35;;;;;;;;;;;16.60;99.90;;;;;;4957551;28;19910;-84
2022/09/09 01:50:01;;;;;;;;;;;16.60;99.90;;;;;;4955910;28;19910;-80
2022/09/09 01:52:27;;;;;;;;;;;16.70;99.90;;;;;;4945974;28;19910;-79
2022/09/09 01:54:52;;;;;;;;;;;16.70;99.90;;;;;;4956118;28;19910;-82
2022/09/09 01:57:18;;;;;;;;;;;16.70;99.90;;;;;;4960363;28;20495;-86
2022/09/09 02:00:05;;;;;;;;;;;16.70;99.90;;;;;;4965990;28;19989;-85
2022/09/09 02:02:50;;;;;;;;;;;16.70;99.90;;;;;;4982088;28;19910;-83
2022/09/09 02:05:33;;;;;;;;;;;16.70;99.90;;;;;;4963407;28;19910;-83
2022/09/09 02:07:59;;;;;;;;;;;;;;;;;;4978806;28;19918;-85
2022/09/09 02:10:42;;;;;;;;;;;16.70;99.90;;;;;;4974125;28;19949;-83
2022/09/09 02:13:13;;;;;;;;;;;16.80;99.90;;;;;;4963364;28;20277;-83
2022/09/09 02:15:43;;;;;;;;;;;16.80;99.90;;;;;;4966349;28;20000;-84
2022/09/09 02:18:10;;;;;;;;;;;16.80;99.90;;;;;;4970376;28;20256;-82
2022/09/09 02:20:39;;;;;;;;;;;16.70;99.90;;;;;;4971434;28;19914;-86
2022/09/09 02:23:07;;;;;;;;;;;16.70;99.90;;;;;;4961765;28;19910;-85
2022/09/09 02:25:33;;;;;;;;;;;16.60;99.90;;;;;;4971839;28;20405;-85
2022/09/09 02:27:59;;;;;;;;;;;16.50;99.90;;;;;;4952660;28;19914;-81
2022/09/09 02:30:24;;;;;;;;;;;16.50;99.90;;;;;;4962455;28;19973;-83
2022/09/09 02:32:51;;;;;;;;;;;16.40;99.90;;;;;;4962103;28;19910;-86
2022/09/09 02:35:22;;;;;;;;;;;16.40;99.90;;;;;;4965709;28;19906;-87
2022/09/09 02:37:50;;;;;;;;;;;16.30;99.90;;;;;;4955643;28;19977;-84
2022/09/09 02:40:15;;;;;;;;;;;16.30;99.90;;;;;;4968917;28;19910;-83
2022/09/09 02:42:42;;;;;;;;;;;16.30;99.90;;;;;;4962069;28;20158;-81
2022/09/09 02:45:08;;;;;;;;;;;16.20;99.90;;;;;;4962308;28;20215;-85
2022/09/09 02:47:36;;;;;;;;;;;16.20;99.90;;;;;;4980198;28;20326;-85
2022/09/09 02:50:02;;;;;;;;;;;16.30;99.90;;;;;;4962039;28;19952;-83
2022/09/09 02:52:40;;;;;;;;;;;16.20;99.90;;;;;;4977682;28;20003;-85
2022/09/09 02:55:08;;;;;;;;;;;16.30;99.90;;;;;;4984276;28;20354;-83
2022/09/09 02:57:34;;;;;;;;;;;16.30;99.90;;;;;;4960801;28;19921;-85
2022/09/09 03:00:01;;;;;;;;;;;16.20;99.90;;;;;;4958966;28;20000;-82
2022/09/09 03:02:26;;;;;;;;;;;16.30;99.90;;;;;;4960193;28;19917;-80
2022/09/09 03:04:52;;;;;;;;;;;16.30;99.90;;;;;;4960451;28;19906;-82
2022/09/09 03:07:18;;;;;;;;;;;16.40;99.90;;;;;;4962267;28;19964;-81
2022/09/09 03:09:44;;;;;;;;;;;16.30;99.90;;;;;;4961416;28;20339;-79
2022/09/09 03:12:10;;;;;;;;;;;16.20;99.90;;;;;;4957750;28;20009;-83
2022/09/09 03:14:37;;;;;;;;;;;16.20;99.90;;;;;;4958288;28;19921;-82
2022/09/09 03:17:04;;;;;;;;;;;16.20;99.90;;;;;;4967136;28;19910;-84
2022/09/09 03:19:29;;;;;;;;;;;16.10;99.90;;;;;;4959340;28;19918;-83
2022/09/09 03:21:55;;;;;;;;;;;16.10;99.90;;;;;;4959900;28;19917;-79
2022/09/09 03:24:22;;;;;;;;;;;16.00;99.90;;;;;;4961009;28;19910;-85
2022/09/09 03:26:48;;;;;;;;;;;16.10;99.90;;;;;;4976215;28;19906;-79
2022/09/09 03:29:14;;;;;;;;;;;16.10;99.90;;;;;;4959791;28;19910;-79
2022/09/09 03:31:40;;;;;;;;;;;16.00;99.90;;;;;;4955250;28;20369;-83
2022/09/09 03:34:06;;;;;;;;;;;16.00;99.90;;;;;;4961969;28;19944;-81
2022/09/09 03:36:32;;;;;;;;;;;16.00;99.90;;;;;;4967158;28;19914;-82
2022/09/09 03:38:58;;;;;;;;;;;15.90;99.90;;;;;;4960794;28;20433;-81
2022/09/09 03:41:24;;;;;;;;;;;15.90;99.90;;;;;;4963568;28;19952;-80
2022/09/09 03:43:51;;;;;;;;;;;;;;;;;;5032936;23;19937;-80
2022/09/09 03:46:17;;;;;;;;;;;15.90;99.90;;;;;;4981452;28;19914;-82
2022/09/09 03:48:43;;;;;;;;;;;15.90;99.90;;;;;;4962450;28;19914;-82
2022/09/09 03:51:08;;;;;;;;;;;15.90;99.90;;;;;;4981437;28;19969;-81
2022/09/09 03:53:34;;;;;;;;;;;16.00;99.90;;;;;;4984093;28;19906;-80
2022/09/09 03:56:00;;;;;;;;;;;15.80;99.90;;;;;;4973610;28;19953;-80
2022/09/09 03:58:29;;;;;;;;;;;15.90;99.90;;;;;;4988533;28;19962;-82
2022/09/09 04:00:54;;;;;;;;;;;16.00;99.90;;;;;;4978996;28;19906;-79
2022/09/09 04:03:20;;;;;;;;;;;16.00;99.90;;;;;;4991273;28;20360;-83
2022/09/09 04:05:48;;;;;;;;;;;15.80;99.90;;;;;;4966035;28;19953;-82
2022/09/09 04:08:14;;;;;;;;;;;16.00;99.90;;;;;;4988805;28;19916;-82
2022/09/09 04:10:39;;;;;;;;;;;15.90;99.90;;;;;;4990539;28;19914;-82
2022/09/09 04:13:05;;;;;;;;;;;15.90;99.90;;;;;;4969756;28;19910;-80
2022/09/09 04:15:31;;;;;;;;;;;14.80;99.90;;;;;;4980024;28;19910;-82
2022/09/09 04:17:56;;;;;;;;;;;15.80;99.90;;;;;;4986018;28;19910;-83
2022/09/09 04:20:22;;;;;;;;;;;15.90;99.90;;;;;;4988799;28;19906;-82
2022/09/09 04:22:48;;;;;;;;;;;16.00;99.90;;;;;;4991188;28;19929;-80
2022/09/09 04:25:14;;;;;;;;;;;15.90;99.90;;;;;;4996796;28;19920;-81
2022/09/09 04:27:40;;;;;;;;;;;15.90;99.90;;;;;;4985655;28;19949;-82
2022/09/09 04:30:06;;;;;;;;;;;15.90;99.90;;;;;;4976575;28;20438;-82
2022/09/09 04:32:32;;;;;;;;;;;15.90;99.90;;;;;;4980497;28;19914;-83
2022/09/09 04:34:58;;;;;;;;;;;15.90;99.90;;;;;;4983525;28;19913;-80
2022/09/09 04:37:24;;;;;;;;;;;15.90;99.90;;;;;;4981817;28;19913;-81
2022/09/09 04:39:50;;;;;;;;;;;15.90;99.90;;;;;;4980769;28;20314;-83
2022/09/09 04:42:17;;;;;;;;;;;16.00;99.90;;;;;;4986719;28;19917;-82
2022/09/09 04:44:43;;;;;;;;;;;16.00;99.90;;;;;;4974905;28;19917;-81
2022/09/09 04:47:09;;;;;;;;;;;16.00;99.90;;;;;;4963433;28;19913;-84
2022/09/09 04:49:35;;;;;;;;;;;16.00;99.90;;;;;;4981288;28;19917;-82
2022/09/09 04:52:01;;;;;;;;;;;16.00;99.90;;;;;;4983083;28;19933;-80
2022/09/09 04:54:28;;;;;;;;;;;16.00;99.90;;;;;;4977252;28;19910;-83
2022/09/09 04:56:54;;;;;;;;;;;16.00;99.90;;;;;;4980183;28;19918;-83
2022/09/09 04:59:20;;;;;;;;;;;15.90;99.90;;;;;;4963663;28;19922;-83
2022/09/09 05:01:45;;;;;;;;;;;16.00;99.90;;;;;;4977424;28;19914;-81
2022/09/09 05:04:11;;;;;;;;;;;15.90;99.90;;;;;;4981478;28;19910;-82
2022/09/09 05:06:37;;;;;;;;;;;15.90;99.90;;;;;;4983523;28;19914;-80
2022/09/09 05:09:02;;;;;;;;;;;16.00;99.90;;;;;;4982593;28;20389;-80
2022/09/09 05:11:29;;;;;;;;;;;16.00;99.90;;;;;;4963146;28;19961;-82
2022/09/09 05:13:56;;;;;;;;;;;16.00;99.90;;;;;;4985012;28;19914;-81
2022/09/09 05:16:22;;;;;;;;;;;15.90;99.90;;;;;;4978200;28;19910;-79
2022/09/09 05:18:48;;;;;;;;;;;15.90;99.90;;;;;;4966918;28;20012;-81
2022/09/09 05:21:15;;;;;;;;;;;15.90;99.90;;;;;;4975244;28;20463;-80
2022/09/09 05:23:40;;;;;;;;;;;15.90;99.90;;;;;;4967833;28;19951;-81
2022/09/09 05:26:07;;;;;;;;;;;15.90;99.90;;;;;;4973111;28;19930;-85
2022/09/09 05:28:36;;;;;;;;;;;16.00;99.90;;;;;;4969526;28;19911;-84
2022/09/09 05:31:07;;;;;;;;;;;16.00;99.90;;;;;;4974239;28;19913;-83
2022/09/09 05:33:34;;;;;;;;;;;16.00;99.90;;;;;;4961820;28;19910;-83
2022/09/09 05:36:07;;;;;;;;;;;16.10;99.90;;;;;;4976332;28;19914;-81
2022/09/09 05:38:34;;;;;;;;;;;16.20;99.90;;;;;;4970749;28;19953;-80
2022/09/09 05:41:00;;;;;;;;;;;16.20;99.90;;;;;;4971846;28;19920;-86
2022/09/09 05:43:26;;;;;;;;;;;16.20;99.90;;;;;;4968811;28;19910;-81
2022/09/09 05:46:01;;;;;;;;;;;16.20;99.90;;;;;;4966695;28;19914;-81
2022/09/09 05:48:37;;;;;;;;;;;16.30;99.90;;;;;;4972651;28;20316;-85
2022/09/09 05:51:03;;;;;;;;;;;16.20;99.90;;;;;;4957022;28;20376;-80
2022/09/09 05:53:33;;;;;;;;;;;16.20;99.90;;;;;;4970056;28;19928;-81
2022/09/09 05:56:03;;;;;;;;;;;16.20;99.90;;;;;;4968817;28;19938;-82
2022/09/09 05:58:34;;;;;;;;;;;16.30;99.90;;;;;;4972495;28;19918;-83
2022/09/09 06:01:01;;;;;;;;;;;16.30;99.90;;;;;;4976700;28;19918;-84
2022/09/09 06:03:27;;;;;;;;;;;16.30;99.90;;;;;;4975370;28;19910;-85
2022/09/09 06:05:59;;;;;;;;;;;16.30;99.90;;;;;;4975478;28;19917;-81
2022/09/09 06:08:25;;;;;;;;;;;16.30;99.90;;;;;;4978338;28;19910;-80
2022/09/09 06:10:52;;;;;;;;;;;16.40;99.90;;;;;;4958423;28;19918;-81
2022/09/09 06:13:17;;;;;;;;;;;16.40;99.90;;;;;;4981417;28;19917;-81
2022/09/09 06:15:50;;;;;;;;;;;16.50;99.90;;;;;;4963334;28;20391;-84
2022/09/09 06:18:18;;;;;;;;;;;16.40;99.90;;;;;;4955047;28;19953;-83
2022/09/09 06:20:53;;;;;;;;;;;16.40;99.90;;;;;;4967333;28;19911;-81
2022/09/09 06:23:20;;;;;;;;;;;16.40;99.90;;;;;;4970416;28;20024;-83
2022/09/09 06:25:45;;;;;;;;;;;16.50;99.90;;;;;;4974695;28;19914;-85
2022/09/09 06:28:11;;;;;;;;;;;16.50;99.90;;;;;;4961126;28;19933;-83
2022/09/09 06:30:36;;;;;;;;;;;16.50;99.90;;;;;;4960784;28;19978;-84
2022/09/09 06:33:03;;;;;;;;;;;16.60;99.90;;;;;;4977538;28;19918;-86
2022/09/09 06:35:29;;;;;;;;;;;16.60;99.90;;;;;;4959781;28;19936;-83
2022/09/09 06:37:54;;;;;;;;;;;16.60;99.90;;;;;;4981091;28;19910;-83
2022/09/09 06:40:20;;;;;;;;;;;16.60;99.90;;;;;;4980058;28;19921;-83
2022/09/09 06:42:45;;;;;;;;;;;16.70;99.90;;;;;;4981142;28;20003;-81
2022/09/09 06:45:11;;;;;;;;;;;16.60;99.90;;;;;;4981090;28;20225;-82
2022/09/09 06:47:37;;;;;;;;;;;16.70;99.90;;;;;;4961420;28;20053;-84
2022/09/09 06:50:02;;;;;;;;;;;16.70;99.90;;;;;;4980499;28;19918;-84
2022/09/09 06:52:28;;;;;;;;;;;;;;;;;;4981321;28;19949;-82
2022/09/09 06:54:54;;;;;;;;;;;16.60;99.90;;;;;;4980966;28;19964;-82
2022/09/09 06:57:19;;;;;;;;;;;16.70;99.90;;;;;;4979881;28;20004;-83
2022/09/09 06:59:45;;;;;;;;;;;16.70;99.90;;;;;;4962410;28;19941;-86
2022/09/09 07:02:11;;;;;;;;;;;16.80;99.90;;;;;;4964750;28;19910;-82
2022/09/09 07:04:36;;;;;;;;;;;16.80;99.90;;;;;;4963573;28;19910;-84
2022/09/09 07:07:02;;;;;;;;;;;16.90;99.90;;;;;;4966160;28;19972;-84
2022/09/09 07:09:29;;;;;;;;;;;16.90;99.90;;;;;;4965855;28;19913;-85
2022/09/09 07:11:55;;;;;;;;;;;16.90;99.90;;;;;;4980153;28;19917;-83
2022/09/09 07:14:20;;;;;;;;;;;16.90;99.90;;;;;;4971687;28;19951;-80
2022/09/09 07:16:46;;;;;;;;;;;17.00;99.90;;;;;;4974474;28;19910;-82
2022/09/09 07:19:12;;;;;;;;;;;17.00;99.90;;;;;;4970494;28;19918;-82
2022/09/09 07:21:38;;;;;;;;;;;17.20;99.90;;;;;;4954372;28;20384;-81
2022/09/09 07:24:07;;;;;;;;;;;17.20;99.90;;;;;;4973022;28;20792;-85
2022/09/09 07:26:33;;;;;;;;;;;17.20;99.90;;;;;;4973141;28;19910;-84
2022/09/09 07:28:59;;;;;;;;;;;17.20;99.90;;;;;;4957066;28;20281;-79
2022/09/09 07:31:26;;;;;;;;;;;17.20;99.90;;;;;;4973304;28;19976;-79
2022/09/09 07:33:51;;;;;;;;;;;17.40;99.90;;;;;;4958038;28;19910;-85
2022/09/09 07:36:21;;;;;;;;;;;17.30;99.90;;;;;;4961070;28;19942;-84
2022/09/09 07:38:50;;;;;;;;;;;17.40;99.90;;;;;;4983954;28;19922;-81
2022/09/09 07:41:20;;;;;;;;;;;17.50;99.90;;;;;;4958292;28;19914;-84
2022/09/09 07:43:47;;;;;;;;;;;17.50;99.90;;;;;;4971318;28;19918;-83
2022/09/09 07:46:14;;;;;;;;;;;17.50;99.90;;;;;;4976679;28;19910;-79
2022/09/09 07:48:44;;;;;;;;;;;19.40;99.90;;;;;;4960417;28;20448;-83
2022/09/09 07:51:11;;;;;;;;;;;17.70;99.90;;;;;;4976881;28;19914;-82
2022/09/09 07:53:40;;;;;;;;;;;17.90;99.90;;;;;;4966441;28;19922;-81
2022/09/09 07:56:07;;;;;;;;;;;17.90;99.90;;;;;;4956787;28;19961;-80
2022/09/09 07:58:32;;;;;;;;;;;18.10;99.90;;;;;;4975206;28;19998;-81
2022/09/09 08:00:58;;;;;;;;;;;18.20;99.90;;;;;;4959997;28;19954;-83
2022/09/09 08:03:23;;;;;;;;;;;18.30;99.90;;;;;;4973832;28;19910;-81
2022/09/09 08:05:49;;;;;;;;;;;18.10;99.90;;;;;;4979452;28;19906;-80
2022/09/09 08:08:16;;;;;;;;;;;18.20;99.90;;;;;;4972244;28;19956;-84
2022/09/09 08:10:41;;;;;;;;;;;18.20;99.90;;;;;;4972430;28;19953;-80
2022/09/09 08:13:08;;;;;;;;;;;18.40;99.90;;;;;;4976632;28;19917;-85
2022/09/09 08:15:34;;;;;;;;;;;18.40;99.90;;;;;;4975811;28;19913;-84
2022/09/09 08:17:59;;;;;;;;;;;18.50;99.90;;;;;;4975543;28;19983;-81
2022/09/09 08:20:25;;;;;;;;;;;18.70;99.90;;;;;;4979774;28;19996;-83
2022/09/09 08:23:02;;;;;;;;;;;18.60;99.90;;;;;;4978536;28;19993;-84
2022/09/09 08:25:28;;;;;;;;;;;18.60;99.90;;;;;;4953960;28;19917;-83
2022/09/09 08:27:54;;;;;;;;;;;18.50;99.90;;;;;;4981748;28;19910;-80
2022/09/09 08:30:19;;;;;;;;;;;18.50;99.90;;;;;;4980325;28;20479;-83
2022/09/09 08:32:45;;;;;;;;;;;18.40;99.90;;;;;;4981219;28;19914;-82
2022/09/09 08:35:11;;;;;;;;;;;18.30;99.90;;;;;;4997079;28;20569;-84
2022/09/09 08:37:36;;;;;;;;;;;18.40;99.90;;;;;;4966149;28;20365;-80
2022/09/09 08:40:02;;;;;;;;;;;18.50;99.90;;;;;;4979377;28;19953;-81
2022/09/09 08:42:37;;;;;;;;;;;18.50;99.90;;;;;;4975484;28;19982;-82
2022/09/09 08:45:03;;;;;;;;;;;18.50;99.90;;;;;;4976142;28;19925;-89
2022/09/09 08:47:28;;;;;;;;;;;18.50;99.90;;;;;;4981936;28;19913;-82
2022/09/09 08:49:55;;;;;;;;;;;18.40;99.90;;;;;;4977277;28;19917;-81
2022/09/09 08:52:50;;;;;;;;;;;18.40;99.90;;;;;;4978600;28;19918;-83
2022/09/09 08:55:27;;;;;;;;;;;18.50;99.90;;;;;;4969390;28;19914;-84
2022/09/09 08:57:54;;;;;;;;;;;18.60;99.90;;;;;;4965460;28;19954;-81
2022/09/09 09:00:20;;;;;;;;;;;18.60;99.90;;;;;;4984158;28;19913;-80
2022/09/09 09:02:53;;;;;;;;;;;18.90;99.90;;;;;;4981860;28;19914;-84
2022/09/09 09:05:27;;;;;;;;;;;18.90;99.90;;;;;;4961654;28;19952;-81
2022/09/09 09:08:06;;;;;;;;;;;19.10;99.90;;;;;;4978039;28;19914;-82
2022/09/09 09:10:40;;;;;;;;;;;19.30;99.90;;;;;;4964305;28;19914;-83
2022/09/09 09:13:14;;;;;;;;;;;19.50;99.90;;;;;;4979756;28;20020;-84
2022/09/09 09:15:41;;;;;;;;;;;19.60;99.90;;;;;;4983366;28;19913;-83
2022/09/09 09:18:12;;;;;;;;;;;20.00;99.90;;;;;;4966166;28;19914;-83
2022/09/09 09:20:53;;;;;;;;;;;20.00;99.90;;;;;;4978177;28;19926;-87
2022/09/09 09:23:22;;;;;;;;;;;20.00;99.90;;;;;;4979609;28;19910;-82
2022/09/09 09:25:50;;;;;;;;;;;20.20;99.90;;;;;;4972020;28;19914;-84
2022/09/09 09:28:21;;;;;;;;;;;20.30;99.90;;;;;;4974683;28;19942;-82
2022/09/09 09:30:54;;;;;;;;;;;20.40;99.90;;;;;;4978118;28;19937;-84
2022/09/09 09:33:22;;;;;;;;;;;20.60;99.90;;;;;;4977494;28;19914;-83
2022/09/09 09:35:50;;;;;;;;;;;20.60;99.90;;;;;;4978395;28;19941;-85
2022/09/09 09:38:17;;;;;;;;;;;20.30;99.90;;;;;;4959110;28;19945;-82
2022/09/09 09:40:52;;;;;;;;;;;20.00;99.90;;;;;;4980068;28;19910;-82
2022/09/09 09:43:20;;;;;;;;;;;19.80;99.90;;;;;;4975014;28;19922;-81
2022/09/09 09:45:45;;;;;;;;;;;19.80;99.90;;;;;;4964729;28;19936;-83
2022/09/09 09:48:12;;;;;;;;;;;19.80;99.90;;;;;;4962335;28;19910;-85
2022/09/09 09:50:49;;;;;;;;;;;19.60;99.90;;;;;;4978570;28;20454;-82
2022/09/09 09:53:23;;;;;;;;;;;19.70;99.90;;;;;;4965418;28;19914;-83
2022/09/09 09:55:53;;;;;;;;;;;19.70;99.90;;;;;;4961292;28;19921;-83
2022/09/09 09:58:18;;;;;;;;;;;19.60;99.90;;;;;;4961680;28;19918;-81
2022/09/09 10:00:52;;;;;;;;;;;19.30;99.90;;;;;;4968190;28;20104;-80
2022/09/09 10:03:26;;;;;;;;;;;19.50;99.90;;;;;;4959971;28;19921;-84
2022/09/09 10:05:52;;;;;;;;;;;19.50;99.90;;;;;;4963531;28;19914;-81
2022/09/09 10:08:17;;;;;;;;;;;19.60;99.90;;;;;;4979467;28;19910;-83
2022/09/09 10:10:55;;;;;;;;;;;19.90;99.90;;;;;;4981994;28;19917;-86
2022/09/09 10:13:27;;;;;;;;;;;20.20;99.90;;;;;;4976105;28;20378;-79
2022/09/09 10:16:07;;;;;;;;;;;20.30;99.90;;;;;;4982157;28;19914;-84
2022/09/09 10:21:08;;;;;;;;;;;20.70;99.90;;;;;;5441133;23;19954;-79
2022/09/09 10:23:53;;;;;;;;;;;20.70;99.90;;;;;;4967208;28;19913;-80
2022/09/09 10:26:48;;;;;;;;;;;20.80;99.90;;;;;;4973356;28;19921;-79
2022/09/09 10:29:13;;;;;;;;;;;20.60;99.90;;;;;;4936552;28;19921;-81
2022/09/09 10:31:42;;;;;;;;;;;20.60;99.90;;;;;;4959661;28;19914;-80
2022/09/09 10:34:20;;;;;;;;;;;20.40;99.90;;;;;;4951361;28;20390;-81
2022/09/09 10:36:49;;;;;;;;;;;20.30;99.90;;;;;;4988734;23;20001;-82
2022/09/09 10:39:33;;;;;;;;;;;20.10;99.90;;;;;;5006619;28;19940;-83
2022/09/09 10:42:02;;;;;;;;;;;20.00;99.90;;;;;;4990123;28;19958;-82
2022/09/09 10:44:35;;;;;;;;;;;19.90;99.90;;;;;;4994055;28;19958;-83
2022/09/09 10:47:19;;;;;;;;;;;19.80;99.90;;;;;;4987189;28;19909;-81
2022/09/09 10:49:54;;;;;;;;;;;19.40;99.90;;;;;;5000500;28;20397;-81
2022/09/09 10:52:26;;;;;;;;;;;19.40;99.90;;;;;;5003979;28;20164;-82
2022/09/09 10:55:07;;;;;;;;;;;19.00;99.90;;;;;;4983960;28;19920;-85
2022/09/09 10:57:54;;;;;;;;;;;18.30;99.90;;;;;;4981968;28;19996;-83
2022/09/09 11:00:21;;;;;;;;;;;18.10;99.90;;;;;;4994754;28;19958;-82
2022/09/09 11:02:56;;;;;;;;;;;17.70;99.90;;;;;;4984648;28;19964;-82
2022/09/09 11:05:31;;;;;;;;;;;17.60;99.90;;;;;;4999183;28;19918;-83
2022/09/09 11:07:59;;;;;;;;;;;17.40;99.90;;;;;;4983185;28;19913;-84
2022/09/09 11:10:44;;;;;;;;;;;17.10;99.90;;;;;;4981250;28;19916;-82
2022/09/09 11:13:15;;;;;;;;;;;17.10;99.90;;;;;;4980439;28;19909;-81
2022/09/09 11:15:52;;;;;;;;;;;17.40;99.90;;;;;;4997296;28;19917;-82
2022/09/09 11:18:20;;;;;;;;;;;17.40;99.90;;;;;;4982104;28;19909;-85
2022/09/09 11:20:47;;;;;;;;;;;17.60;99.90;;;;;;4984199;28;19910;-84
2022/09/09 11:23:16;;;;;;;;;;;17.60;99.90;;;;;;4984727;28;20365;-81
2022/09/09 11:25:48;;;;;;;;;;;17.90;99.90;;;;;;4988639;28;20382;-81
2022/09/09 11:28:16;;;;;;;;;;;18.10;99.90;;;;;;4983579;28;19917;-83
2022/09/09 11:31:01;;;;;;;;;;;18.50;99.90;;;;;;4986641;28;20376;-82
2022/09/09 11:33:47;;;;;;;;;;;18.80;99.90;;;;;;4998479;28;19928;-81
2022/09/09 11:36:34;;;;;;;;;;;19.10;99.90;;;;;;4998275;28;19922;-82
2022/09/09 11:39:09;;;;;;;;;;;19.40;99.90;;;;;;4995436;28;19914;-83
2022/09/09 11:41:37;;;;;;;;;;;19.50;99.90;;;;;;4977640;28;19916;-83
2022/09/09 11:44:10;;;;;;;;;;;19.60;99.90;;;;;;4992953;28;19914;-83
2022/09/09 11:46:37;;;;;;;;;;;19.50;99.90;;;;;;4985133;28;19917;-84
2022/09/09 11:49:04;;;;;;;;;;;19.30;99.90;;;;;;4980531;28;19910;-83
2022/09/09 11:51:31;;;;;;;;;;;19.10;99.90;;;;;;4983329;28;19913;-84
2022/09/09 11:54:04;;;;;;;;;;;18.90;99.90;;;;;;4987811;28;19917;-81
2022/09/09 11:56:31;;;;;;;;;;;18.80;99.90;;;;;;4997285;28;20425;-85
2022/09/09 11:58:56;;;;;;;;;;;18.80;99.90;;;;;;4986497;28;20357;-83
2022/09/09 12:01:39;;;;;;;;;;;18.70;99.90;;;;;;4988305;28;19910;-83
2022/09/09 12:04:13;;;;;;;;;;;18.50;99.90;;;;;;4967136;28;19914;-81
2022/09/09 12:06:59;;;;;;;;;;;18.50;99.90;;;;;;4991913;28;19917;-84
2022/09/09 12:09:28;;;;;;;;;;;18.40;99.90;;;;;;4984545;28;20358;-83
2022/09/09 12:12:05;;;;;;;;;;;18.40;99.90;;;;;;4985329;28;19909;-78
2022/09/09 12:14:32;;;;;;;;;;;;;;;;;;5000289;28;19944;-83
2022/09/09 12:17:09;;;;;;;;;;;18.20;99.90;;;;;;4982947;28;20240;-83
2022/09/09 12:19:34;;;;;;;;;;;18.20;99.90;;;;;;4979861;28;20385;-84
2022/09/09 12:22:11;;;;;;;;;;;18.30;99.90;;;;;;4981146;28;19920;-83
2022/09/09 12:24:57;;;;;;;;;;;18.50;99.90;;;;;;4986703;28;19956;-84
2022/09/09 12:27:34;;;;;;;;;;;19.10;99.90;;;;;;4952830;28;19920;-88
2022/09/09 12:30:18;;;;;;;;;;;19.30;99.90;;;;;;4988687;28;20369;-86
2022/09/09 12:32:47;;;;;;;;;;;19.90;99.90;;;;;;4989181;28;19915;-85
2022/09/09 12:35:25;;;;;;;;;;;20.20;99.90;;;;;;4992551;28;19952;-83
2022/09/09 12:37:52;;;;;;;;;;;;;;;;;;4984450;28;20004;-86
2022/09/09 12:40:18;;;;;;;;;;;20.40;99.90;;;;;;4997631;28;19991;-86
2022/09/09 12:42:43;;;;;;;;;;;20.40;99.90;;;;;;4987269;28;19914;-85
2022/09/09 12:45:24;;;;;;;;;;;20.30;99.90;;;;;;4987236;28;19914;-84
2022/09/09 12:47:56;;;;;;;;;;;20.10;99.90;;;;;;4993473;28;19920;-86
2022/09/09 12:50:29;;;;;;;;;;;19.80;99.90;;;;;;4993161;28;19918;-83
2022/09/09 12:52:58;;;;;;;;;;;19.60;99.90;;;;;;4988795;28;19914;-85
2022/09/09 12:55:25;;;;;;;;;;;19.40;99.90;;;;;;4989667;28;19920;-85
2022/09/09 12:57:51;;;;;;;;;;;19.30;99.90;;;;;;4989622;28;19917;-85
2022/09/09 13:00:22;;;;;;;;;;;19.00;99.90;;;;;;4997581;28;19920;-88
2022/09/09 13:02:55;;;;;;;;;;;19.00;99.90;;;;;;5007593;28;19961;-85
2022/09/09 13:05:21;;;;;;;;;;;;;;;;;;5005628;28;19913;-86
2022/09/09 13:07:47;;;;;;;;;;;19.20;99.90;;;;;;5008354;28;19913;-85
2022/09/09 13:10:13;;;;;;;;;;;19.20;99.90;;;;;;5005645;28;19933;-84
2022/09/09 13:12:41;;;;;;;;;;;19.10;99.90;;;;;;5007104;28;19973;-84
2022/09/09 13:15:20;;;;;;;;;;;19.10;99.90;;;;;;4991910;28;20389;-84
2022/09/09 13:17:53;;;;;;;;;;;19.00;99.90;;;;;;4991895;28;19913;-85
2022/09/09 13:20:19;;;;;;;;;;;18.80;99.90;;;;;;4988924;28;19921;-86
2022/09/09 13:22:47;;;;;;;;;;;18.80;99.90;;;;;;4989501;28;19909;-86
2022/09/09 13:25:12;;;;;;;;;;;19.00;99.90;;;;;;4990293;28;20240;-86
2022/09/09 13:27:39;;;;;;;;;;;19.30;99.90;;;;;;4992775;28;20355;-85
2022/09/09 13:30:24;;;;;;;;;;;19.50;99.90;;;;;;4988050;28;20094;-86
2022/09/09 13:33:00;;;;;;;;;;;19.50;99.90;;;;;;4992849;28;19924;-85
2022/09/09 13:35:26;;;;;;;;;;;19.40;99.90;;;;;;4995930;28;20372;-85
2022/09/09 13:37:52;;;;;;;;;;;19.40;99.90;;;;;;4991556;28;19945;-87
2022/09/09 13:40:19;;;;;;;;;;;19.20;99.90;;;;;;4998764;28;19913;-83
2022/09/09 13:42:44;;;;;;;;;;;19.20;99.90;;;;;;4994351;28;19913;-83
2022/09/09 13:45:20;;;;;;;;;;;19.30;99.90;;;;;;4999477;28;22654;-84
2022/09/09 13:47:46;;;;;;;;;;;19.30;99.90;;;;;;4982828;28;20200;-84
2022/09/09 13:50:22;;;;;;;;;;;19.30;99.90;;;;;;4985739;28;20468;-85
2022/09/09 13:52:51;;;;;;;;;;;21.00;99.90;;;;;;4974967;28;19913;-88
2022/09/09 13:55:17;;;;;;;;;;;19.60;99.90;;;;;;5009634;28;20449;-85
2022/09/09 13:57:53;;;;;;;;;;;19.70;99.90;;;;;;4985494;28;19910;-85
2022/09/09 14:00:19;;;;;;;;;;;20.00;99.90;;;;;;4987599;28;19928;-84
2022/09/09 14:02:45;;;;;;;;;;;20.10;99.90;;;;;;4993721;28;20290;-86
2022/09/09 14:05:11;;;;;;;;;;;20.40;99.90;;;;;;4985515;28;19944;-85
2022/09/09 14:07:38;;;;;;;;;;;20.60;99.90;;;;;;5006680;28;20316;-83
2022/09/09 14:10:04;;;;;;;;;;;20.70;99.90;;;;;;4985544;28;19917;-83
2022/09/09 14:12:29;;;;;;;;;;;20.90;99.90;;;;;;4987800;28;19914;-84
2022/09/09 14:14:55;;;;;;;;;;;20.90;99.90;;;;;;4984749;28;19917;-84
2022/09/09 14:17:22;;;;;;;;;;;20.70;99.90;;;;;;4983048;28;20366;-85
2022/09/09 14:19:47;;;;;;;;;;;20.60;99.90;;;;;;4986736;28;19917;-85
2022/09/09 14:22:13;;;;;;;;;;;20.20;99.90;;;;;;4992377;28;19959;-85
2022/09/09 14:24:39;;;;;;;;;;;20.20;99.90;;;;;;4986711;28;20542;-85
2022/09/09 14:27:04;;;;;;;;;;;20.20;99.90;;;;;;4989657;28;19989;-84
2022/09/09 14:29:30;;;;;;;;;;;20.30;99.90;;;;;;4989806;28;19909;-85
2022/09/09 14:31:55;;;;;;;;;;;20.20;99.90;;;;;;4976324;28;19909;-84
2022/09/09 14:34:21;;;;;;;;;;;19.90;99.90;;;;;;4984304;28;19920;-83